OPA Logo
 

ASOS: KRDM
At:2018.10.21 0156 UTC
Wind:300° @ 7KT
Viz: 10 mile(s)
Sky: clear
Temp: 63.0 F (17.2 C)
DewP: 33.1 F (0.6 C)
RH: 32%
Baro: 30.04 in.
ob: KRDM 210156Z 30007KT 10SM CLR 17/01 A3004 RMK AO2 SLP177 T01720006
Apache-SSL Logo

Valid HTML 4.01!

Local FAA Notices



15 May 2002 - FAA APPROVES 4 new antennas near St. Charles Hospital


2 May 2002, FAA Northwest Mountain Region Letter to Airmen 02-01

VFR Practice Approaches: Page 1, Page 2, Page 3, Page 4.


11 Apr 2002 - FAA Public Notice, 4 new antennas near St. Charles Hospital



Web page by: gem@rellim.com